Time;durP1;ratioP1;P1;durP2;ratioP2;P2;SDS_P1;SDS_P2;PMS_P1;PMS_P2;Temp;Humidity;BMP_temperature;BMP_pressure;BME280_temperature;BME280_humidity;BME280_pressure;Samples;Min_cycle;Max_cycle;Signal;HPM_P1;HPM_P2
2023/08/09 00:00:31;;;;;;;3.97;1.17;;;16.10;70.40;;;;;;6165296;23;20047;-87
2023/08/09 00:03:02;;;;;;;4.20;1.15;;;16.00;70.10;;;;;;6190395;23;20020;-86
2023/08/09 00:05:29;;;;;;;2.83;0.70;;;16.00;70.40;;;;;;6190421;23;20463;-86
2023/08/09 00:07:56;;;;;;;4.00;1.02;;;16.00;70.20;;;;;;6216954;23;20028;-85
2023/08/09 00:10:23;;;;;;;4.13;1.05;;;16.00;70.20;;;;;;6190073;23;20031;-86
2023/08/09 00:12:51;;;;;;;3.47;0.98;;;16.00;70.70;;;;;;6165010;23;20016;-85
2023/08/09 00:15:18;;;;;;;4.00;1.13;;;16.00;70.20;;;;;;6190142;23;20474;-86
2023/08/09 00:17:45;;;;;;;4.90;0.90;;;16.00;70.20;;;;;;6165092;23;20441;-86
2023/08/09 00:20:12;;;;;;;3.45;0.90;;;16.10;69.90;;;;;;6178656;23;20359;-86
2023/08/09 00:22:41;;;;;;;4.57;1.02;;;16.10;69.90;;;;;;6189692;23;20071;-86
2023/08/09 00:25:10;;;;;;;3.30;0.98;;;16.10;69.80;;;;;;6165154;23;20023;-86
2023/08/09 00:27:38;;;;;;;3.72;0.85;;;16.20;69.20;;;;;;6183489;23;20021;-86
2023/08/09 00:30:07;;;;;;;3.10;0.80;;;16.20;69.00;;;;;;6214722;23;20458;-85
2023/08/09 00:32:34;;;;;;;2.75;0.80;;;16.20;69.20;;;;;;6189908;23;20049;-86
2023/08/09 00:35:01;;;;;;;5.95;1.15;;;16.20;69.30;;;;;;6214852;23;20343;-86
2023/08/09 00:37:28;;;;;;;4.07;1.00;;;16.20;69.60;;;;;;6215126;23;20095;-85
2023/08/09 00:39:55;;;;;;;3.95;1.00;;;16.10;69.70;;;;;;6165383;23;20027;-86
2023/08/09 00:42:23;;;;;;;3.23;0.80;;;16.10;69.60;;;;;;6205228;23;20119;-86
2023/08/09 00:44:51;;;;;;;6.70;1.00;;;16.10;69.50;;;;;;6190025;23;20020;-85
2023/08/09 00:47:20;;;;;;;4.40;1.25;;;16.10;69.40;;;;;;6214605;23;20025;-86
2023/08/09 00:49:47;;;;;;;3.50;0.80;;;16.20;69.50;;;;;;6189715;23;20028;-85
2023/08/09 00:52:16;;;;;;;4.20;1.10;;;16.20;69.70;;;;;;6189258;23;20513;-86
2023/08/09 00:54:46;;;;;;;4.57;0.90;;;16.10;69.40;;;;;;6209289;23;20021;-86
2023/08/09 00:57:14;;;;;;;5.00;1.08;;;16.10;69.40;;;;;;6164793;23;20012;-86
2023/08/09 00:59:41;;;;;;;4.80;1.08;;;16.10;69.80;;;;;;6164539;23;20343;-86
2023/08/09 01:02:08;;;;;;;3.00;1.00;;;16.10;69.60;;;;;;6164952;23;20031;-86
2023/08/09 01:04:36;;;;;;;3.40;1.05;;;16.10;69.80;;;;;;6169450;23;20463;-86
2023/08/09 01:07:19;;;;;;;3.63;0.80;;;16.10;70.10;;;;;;6135214;23;20073;-85
2023/08/09 01:09:52;;;;;;;6.10;1.00;;;16.10;69.90;;;;;;6134872;23;20029;-86
2023/08/09 01:12:26;;;;;;;4.38;1.10;;;16.10;70.10;;;;;;6184145;23;20017;-85
2023/08/09 01:14:59;;;;;;;3.33;0.75;;;16.10;70.00;;;;;;6159778;23;20036;-86
2023/08/09 01:17:28;;;;;;;3.83;0.90;;;16.00;69.90;;;;;;6135331;23;20017;-85
2023/08/09 01:19:56;;;;;;;3.27;0.80;;;16.00;69.90;;;;;;6134884;23;20021;-85
2023/08/09 01:22:31;;;;;;;3.22;1.00;;;16.00;70.10;;;;;;6135394;23;20025;-85
2023/08/09 01:25:03;;;;;;;3.13;0.98;;;16.00;70.40;;;;;;6159297;23;20375;-85
2023/08/09 01:27:31;;;;;;;4.82;1.00;;;16.00;70.20;;;;;;6135027;23;20024;-85
2023/08/09 01:29:58;;;;;;;3.83;1.00;;;16.00;70.50;;;;;;6183841;23;20025;-85
2023/08/09 01:32:26;;;;;;;3.77;1.10;;;16.00;70.50;;;;;;6134981;23;20028;-85
2023/08/09 01:34:54;;;;;;;3.75;1.10;;;16.00;70.40;;;;;;6135064;23;20017;-86
2023/08/09 01:37:43;;;;;;;5.88;1.25;;;16.00;70.20;;;;;;6134588;23;20068;-86
2023/08/09 01:40:11;;;;;;;4.28;1.00;;;16.00;70.60;;;;;;6134883;23;20021;-85
2023/08/09 01:42:40;;;;;;;6.90;1.30;;;16.00;70.80;;;;;;6134966;23;20113;-86
2023/08/09 01:45:10;;;;;;;4.03;1.00;;;16.00;70.50;;;;;;6159487;23;20021;-86
2023/08/09 01:47:40;;;;;;;4.00;1.00;;;16.00;70.80;;;;;;6160022;23;20025;-86
2023/08/09 01:50:20;;;;;;;4.82;1.02;;;16.00;70.70;;;;;;6159607;23;20336;-86
2023/08/09 01:52:47;;;;;;;5.82;1.00;;;15.90;70.90;;;;;;6159546;23;20023;-85
2023/08/09 01:55:19;;;;;;;3.55;1.00;;;15.90;71.00;;;;;;6135094;23;20440;-86
2023/08/09 01:57:48;;;;;;;3.47;1.10;;;15.90;71.20;;;;;;6134816;23;20048;-85
2023/08/09 02:00:19;;;;;;;3.47;0.90;;;15.90;71.70;;;;;;6183430;23;20112;-86
2023/08/09 02:02:47;;;;;;;6.90;1.10;;;15.80;71.40;;;;;;6134594;23;20021;-86
2023/08/09 02:05:15;;;;;;;5.43;1.10;;;15.80;71.80;;;;;;6211365;23;20412;-85
2023/08/09 02:07:42;;;;;;;3.60;1.10;;;15.70;71.80;;;;;;6158906;23;20017;-86
2023/08/09 02:10:10;;;;;;;4.93;1.37;;;15.70;72.10;;;;;;6158560;23;20017;-86
2023/08/09 02:12:38;;;;;;;3.53;1.02;;;15.60;72.10;;;;;;6208746;23;20055;-86
2023/08/09 02:15:06;;;;;;;5.45;1.20;;;15.70;72.10;;;;;;6164426;23;20024;-85
2023/08/09 02:17:34;;;;;;;3.83;1.08;;;15.60;72.00;;;;;;6206731;23;20024;-85
2023/08/09 02:20:01;;;;;;;6.57;1.10;;;15.70;72.20;;;;;;6158808;23;20104;-86
2023/08/09 02:22:36;;;;;;;4.20;1.30;;;15.70;71.80;;;;;;6205150;23;20484;-85
2023/08/09 02:25:04;;;;;;;4.28;1.23;;;15.80;72.10;;;;;;6187482;23;20024;-86
2023/08/09 02:27:31;;;;;;;4.28;1.10;;;15.80;72.00;;;;;;6159221;23;20556;-86
2023/08/09 02:30:03;;;;;;;5.32;1.30;;;15.80;71.90;;;;;;6186828;23;20354;-86
2023/08/09 02:32:34;;;;;;;4.93;1.40;;;15.80;71.90;;;;;;6164215;23;20480;-85
2023/08/09 02:35:02;;;;;;;7.23;1.23;;;15.80;72.00;;;;;;6164265;23;20036;-85
2023/08/09 02:37:29;;;;;;;2.55;0.80;;;15.80;72.20;;;;;;6188972;23;20443;-86
2023/08/09 02:39:57;;;;;;;5.82;1.30;;;15.70;72.20;;;;;;6188879;23;20016;-85
2023/08/09 02:42:24;;;;;;;3.42;1.15;;;15.70;72.30;;;;;;6179410;23;20336;-86
2023/08/09 02:44:51;;;;;;;4.80;1.05;;;15.70;72.30;;;;;;6160443;23;20134;-86
2023/08/09 02:47:18;;;;;;;10.07;1.40;;;15.70;72.30;;;;;;6183860;23;20118;-86
2023/08/09 02:49:45;;;;;;;3.90;1.08;;;15.70;72.20;;;;;;6154145;23;20017;-86
2023/08/09 02:52:12;;;;;;;3.97;1.05;;;15.70;72.20;;;;;;6158883;23;20025;-86
2023/08/09 02:54:39;;;;;;;4.60;1.38;;;15.70;72.10;;;;;;6177320;23;20021;-85
2023/08/09 02:57:10;;;;;;;3.15;0.93;;;15.70;72.80;;;;;;6176869;23;20092;-86
2023/08/09 02:59:37;;;;;;;2.63;0.80;;;15.60;72.70;;;;;;6188388;23;20020;-85
2023/08/09 03:02:05;;;;;;;4.28;1.20;;;15.50;72.60;;;;;;6187570;23;20086;-86
2023/08/09 03:04:33;;;;;;;4.68;1.10;;;15.50;73.00;;;;;;6181167;23;20477;-86
2023/08/09 03:07:00;;;;;;;4.78;1.23;;;15.50;73.30;;;;;;6213100;23;20359;-86
2023/08/09 03:09:28;;;;;;;3.05;0.93;;;15.50;73.20;;;;;;6158856;23;20363;-85
2023/08/09 03:11:55;;;;;;;4.63;1.00;;;15.50;73.40;;;;;;6185034;23;20013;-87
2023/08/09 03:14:22;;;;;;;8.85;1.38;;;15.50;73.40;;;;;;6158782;23;20100;-86
2023/08/09 03:16:49;;;;;;;3.42;1.10;;;15.50;73.40;;;;;;6205709;23;20028;-86
2023/08/09 03:19:16;;;;;;;4.88;1.30;;;15.50;73.50;;;;;;6188507;23;20112;-86
2023/08/09 03:21:47;;;;;;;6.80;1.42;;;15.50;73.40;;;;;;6164437;23;20031;-85
2023/08/09 03:24:14;;;;;;;4.67;1.53;;;15.50;73.50;;;;;;6190314;23;20020;-86
2023/08/09 03:26:42;;;;;;;4.13;1.25;;;15.50;73.70;;;;;;6215070;23;20024;-86
2023/08/09 03:29:10;;;;;;;5.88;1.52;;;15.40;73.80;;;;;;6190462;23;20027;-86
2023/08/09 03:31:37;;;;;;;4.03;0.90;;;15.40;73.80;;;;;;6189987;23;20067;-86
2023/08/09 03:34:05;;;;;;;4.18;1.23;;;15.30;73.90;;;;;;6190470;23;20039;-86
2023/08/09 03:36:32;;;;;;;3.57;0.93;;;15.30;74.00;;;;;;6215270;23;20020;-86
2023/08/09 03:38:59;;;;;;;4.55;1.35;;;15.30;74.30;;;;;;6215321;23;20379;-85
2023/08/09 03:41:26;;;;;;;3.83;1.25;;;15.30;74.40;;;;;;6185319;23;20021;-86
2023/08/09 03:43:54;;;;;;;7.00;1.20;;;15.30;74.30;;;;;;6165180;23;20029;-86
2023/08/09 03:46:21;;;;;;;4.40;1.45;;;15.30;74.20;;;;;;6205441;23;20407;-86
2023/08/09 03:48:48;;;;;;;4.97;1.40;;;15.30;74.40;;;;;;6160967;23;20027;-86
2023/08/09 03:51:16;;;;;;;3.80;0.90;;;15.30;74.20;;;;;;6165395;23;20023;-85
2023/08/09 03:53:43;;;;;;;3.67;0.98;;;15.30;74.30;;;;;;6165603;23;20473;-86
2023/08/09 03:56:11;;;;;;;4.28;1.02;;;15.30;74.10;;;;;;6214474;23;20017;-85
2023/08/09 03:58:38;;;;;;;3.85;1.25;;;15.30;74.40;;;;;;6189734;23;20017;-85
2023/08/09 04:01:06;;;;;;;4.43;1.10;;;15.30;74.30;;;;;;6214765;23;20474;-86
2023/08/09 04:03:33;;;;;;;4.25;1.02;;;15.30;74.30;;;;;;6190164;23;20024;-86
2023/08/09 04:06:02;;;;;;;6.28;1.23;;;15.40;74.30;;;;;;6165327;23;20025;-86
2023/08/09 04:08:30;;;;;;;3.80;1.00;;;15.40;74.30;;;;;;6189677;23;20016;-86
2023/08/09 04:10:57;;;;;;;5.97;1.15;;;15.40;74.60;;;;;;6215104;23;20025;-85
2023/08/09 04:13:25;;;;;;;3.80;1.10;;;15.30;74.20;;;;;;6214850;23;20013;-86
2023/08/09 04:15:52;;;;;;;3.33;1.10;;;15.30;74.50;;;;;;6161314;23;20024;-86
2023/08/09 04:18:19;;;;;;;4.57;1.33;;;15.30;74.20;;;;;;6160256;23;20436;-86
2023/08/09 04:20:46;;;;;;;5.00;1.30;;;15.30;74.40;;;;;;6160886;23;20355;-86
2023/08/09 04:23:14;;;;;;;4.00;1.20;;;15.30;74.20;;;;;;6184803;23;20025;-86
2023/08/09 04:25:41;;;;;;;6.63;1.27;;;15.30;74.30;;;;;;6209603;23;20024;-86
2023/08/09 04:28:08;;;;;;;5.95;1.33;;;15.30;74.60;;;;;;6160275;23;20112;-86
2023/08/09 04:30:38;;;;;;;5.68;1.13;;;15.30;74.60;;;;;;6184809;23;20403;-86
2023/08/09 04:33:05;;;;;;;4.00;1.23;;;15.30;74.50;;;;;;6213878;23;20028;-86
2023/08/09 04:35:33;;;;;;;3.83;1.27;;;15.30;74.50;;;;;;6184733;23;20017;-86
2023/08/09 04:38:03;;;;;;;4.07;1.30;;;15.40;74.50;;;;;;6212899;23;20387;-86
2023/08/09 04:40:31;;;;;;;4.75;1.27;;;15.40;74.30;;;;;;6184654;23;20013;-86
2023/08/09 04:42:59;;;;;;;3.63;1.20;;;15.40;74.20;;;;;;6163021;23;20025;-86
2023/08/09 04:45:26;;;;;;;3.95;1.27;;;15.40;74.40;;;;;;6205768;23;20025;-86
2023/08/09 04:47:53;;;;;;;6.28;1.50;;;15.50;74.30;;;;;;6214417;23;20024;-86
2023/08/09 04:50:21;;;;;;;5.17;1.10;;;15.50;74.60;;;;;;6164742;23;20028;-86
2023/08/09 04:52:49;;;;;;;4.63;1.25;;;15.50;74.50;;;;;;6164709;23;20026;-86
2023/08/09 04:55:16;;;;;;;4.35;1.55;;;15.50;74.60;;;;;;6164666;23;20458;-85
2023/08/09 04:57:43;;;;;;;4.30;1.17;;;15.60;74.00;;;;;;6189396;23;20019;-85
2023/08/09 05:00:11;;;;;;;3.90;1.17;;;15.70;73.80;;;;;;6189398;23;20013;-85
2023/08/09 05:02:39;;;;;;;4.53;1.07;;;15.80;73.90;;;;;;6189646;23;20024;-85
2023/08/09 05:05:08;;;;;;;4.80;1.30;;;15.80;73.80;;;;;;6159717;23;20080;-86
2023/08/09 05:07:36;;;;;;;3.60;1.00;;;15.80;73.60;;;;;;6177502;23;20024;-86
2023/08/09 05:10:04;;;;;;;4.47;1.10;;;15.90;73.30;;;;;;6213468;23;20045;-85
2023/08/09 05:12:31;;;;;;;2.95;1.00;;;15.90;73.40;;;;;;6189521;23;20040;-86
2023/08/09 05:14:58;;;;;;;4.23;1.00;;;15.90;73.30;;;;;;6164445;23;20107;-86
2023/08/09 05:17:25;;;;;;;3.28;1.00;;;15.90;73.70;;;;;;6189292;23;20021;-85
2023/08/09 05:19:52;;;;;;;4.05;1.35;;;15.90;73.40;;;;;;6186157;23;20466;-86
2023/08/09 05:22:19;;;;;;;4.10;1.30;;;15.90;72.80;;;;;;6188847;23;20024;-86
2023/08/09 05:24:46;;;;;;;6.38;1.00;;;16.00;73.00;;;;;;6214068;23;20024;-86
2023/08/09 05:27:14;;;;;;;4.77;1.10;;;16.00;72.70;;;;;;6183986;23;20025;-85
2023/08/09 05:29:40;;;;;;;5.28;1.00;;;16.10;73.40;;;;;;6153653;23;20120;-85
2023/08/09 05:32:08;;;;;;;4.10;1.10;;;16.10;73.00;;;;;;6183712;23;20027;-85
2023/08/09 05:34:35;;;;;;;6.78;1.45;;;16.20;72.60;;;;;;6181865;23;20024;-86
2023/08/09 05:37:02;;;;;;;6.20;1.35;;;16.40;72.40;;;;;;6162971;23;20024;-85
2023/08/09 05:39:30;;;;;;;4.70;1.30;;;16.60;71.70;;;;;;6164225;23;20013;-86
2023/08/09 05:41:57;;;;;;;6.20;1.30;;;16.70;71.20;;;;;;6214068;23;20025;-85
2023/08/09 05:44:25;;;;;;;5.25;1.42;;;17.00;70.50;;;;;;6213909;23;20048;-85
2023/08/09 05:46:52;;;;;;;4.05;1.13;;;17.10;69.50;;;;;;6160767;23;20069;-86
2023/08/09 05:49:19;;;;;;;3.63;1.30;;;17.30;70.10;;;;;;6158990;23;20108;-85
2023/08/09 05:51:46;;;;;;;5.30;1.10;;;17.50;69.60;;;;;;6209095;23;20020;-85
2023/08/09 05:54:14;;;;;;;4.80;1.33;;;17.80;68.80;;;;;;6184121;23;20017;-85
2023/08/09 05:56:41;;;;;;;3.83;1.15;;;18.00;68.30;;;;;;6153105;23;20379;-85
2023/08/09 05:59:08;;;;;;;7.53;1.33;;;18.10;66.70;;;;;;6200999;23;20013;-85
2023/08/09 06:01:35;;;;;;;5.13;1.52;;;18.30;67.30;;;;;;6189000;23;20398;-85
2023/08/09 06:04:03;;;;;;;6.93;1.83;;;18.30;67.20;;;;;;6189142;23;20012;-85
2023/08/09 06:06:31;;;;;;;5.95;1.50;;;18.30;65.40;;;;;;6158842;23;20104;-85
2023/08/09 06:08:59;;;;;;;6.90;1.25;;;18.10;66.50;;;;;;6159967;23;20017;-85
2023/08/09 06:11:26;;;;;;;6.07;1.25;;;18.10;67.70;;;;;;6159146;23;20105;-85
2023/08/09 06:13:53;;;;;;;3.67;1.15;;;18.30;66.30;;;;;;6207097;23;20016;-85
2023/08/09 06:16:20;;;;;;;5.47;1.40;;;18.40;67.00;;;;;;6164243;23;20071;-86
2023/08/09 06:18:47;;;;;;;4.28;1.30;;;18.60;65.80;;;;;;6164441;23;20016;-86
2023/08/09 06:21:14;;;;;;;3.33;1.10;;;18.70;64.30;;;;;;6164048;23;20028;-86
2023/08/09 06:23:41;;;;;;;4.80;1.00;;;18.80;65.00;;;;;;6188792;23;20107;-86
2023/08/09 06:26:08;;;;;;;2.78;1.00;;;19.00;64.80;;;;;;6213398;23;20020;-86
2023/08/09 06:28:35;;;;;;;3.70;1.00;;;19.00;64.90;;;;;;6164261;23;20447;-86
2023/08/09 06:31:02;;;;;;;4.10;1.30;;;19.10;65.10;;;;;;6188975;23;20354;-86
2023/08/09 06:33:30;;;;;;;2.92;1.00;;;19.30;65.20;;;;;;6163902;23;20024;-86
2023/08/09 06:35:57;;;;;;;3.80;0.90;;;19.50;64.00;;;;;;6189162;23;20020;-86
2023/08/09 06:38:24;;;;;;;3.35;1.20;;;19.50;62.50;;;;;;6188746;23;20012;-85
2023/08/09 06:40:51;;;;;;;3.90;1.10;;;19.50;62.90;;;;;;6164379;23;20020;-86
2023/08/09 06:43:18;;;;;;;6.78;1.13;;;19.50;63.80;;;;;;6159169;23;20022;-85
2023/08/09 06:45:48;;;;;;;3.55;1.10;;;19.60;64.50;;;;;;6159545;23;20021;-86
2023/08/09 06:48:15;;;;;;;4.60;1.20;;;19.60;63.80;;;;;;6163886;23;20071;-86
2023/08/09 06:50:45;;;;;;;4.07;1.20;;;19.70;64.50;;;;;;6159516;23;20024;-85
2023/08/09 06:53:13;;;;;;;4.40;1.23;;;19.80;63.50;;;;;;6202024;23;20021;-85
2023/08/09 06:55:40;;;;;;;5.28;1.70;;;19.70;63.70;;;;;;6159075;23;20019;-85
2023/08/09 06:58:07;;;;;;;7.25;1.70;;;19.60;63.40;;;;;;6214810;23;20020;-86
2023/08/09 07:00:34;;;;;;;6.35;1.20;;;19.60;64.00;;;;;;6160982;23;20371;-85
2023/08/09 07:03:01;;;;;;;5.07;1.60;;;19.60;63.80;;;;;;6188885;23;20025;-86
2023/08/09 07:05:28;;;;;;;5.93;1.70;;;19.50;63.30;;;;;;6182295;23;20103;-85
2023/08/09 07:07:56;;;;;;;4.88;2.20;;;19.50;63.80;;;;;;6163521;23;20021;-85
2023/08/09 07:10:25;;;;;;;7.93;2.10;;;19.50;63.60;;;;;;6190574;23;20024;-85
2023/08/09 07:12:52;;;;;;;5.32;1.70;;;19.50;63.80;;;;;;6190357;23;20354;-85
2023/08/09 07:15:20;;;;;;;8.43;2.33;;;19.50;63.40;;;;;;6215259;23;20021;-86
2023/08/09 07:17:47;;;;;;;7.47;2.43;;;19.40;64.00;;;;;;6186356;23;20099;-85
2023/08/09 07:20:14;;;;;;;6.95;1.65;;;19.50;64.00;;;;;;6215391;23;20351;-85
2023/08/09 07:22:43;;;;;;;4.93;1.88;;;19.30;63.30;;;;;;6160848;23;20017;-85
2023/08/09 07:25:13;;;;;;;7.75;1.98;;;19.30;64.30;;;;;;6160824;23;20486;-86
2023/08/09 07:27:45;;;;;;;7.60;2.38;;;19.40;65.10;;;;;;6185527;23;20021;-86
2023/08/09 07:30:15;;;;;;;8.27;2.43;;;19.40;64.10;;;;;;6210409;23;20028;-86
2023/08/09 07:32:43;;;;;;;7.22;2.35;;;19.40;65.80;;;;;;6210095;23;20013;-86
2023/08/09 07:35:11;;;;;;;6.70;2.25;;;19.50;65.50;;;;;;6210482;23;20044;-86
2023/08/09 07:37:41;;;;;;;9.43;2.20;;;19.50;63.80;;;;;;6210154;23;20020;-86
2023/08/09 07:40:09;;;;;;;9.43;2.63;;;19.50;63.90;;;;;;6215512;23;20023;-86
2023/08/09 07:42:36;;;;;;;9.73;2.17;;;19.60;64.70;;;;;;6160708;23;20040;-85
2023/08/09 07:45:04;;;;;;;6.88;2.10;;;19.60;64.70;;;;;;6189443;23;20084;-86
2023/08/09 07:47:31;;;;;;;6.88;2.42;;;19.70;64.20;;;;;;6165264;23;20401;-87
2023/08/09 07:50:00;;;;;;;5.95;1.50;;;19.90;63.80;;;;;;6217162;23;20469;-86
2023/08/09 07:52:27;;;;;;;6.47;2.08;;;20.00;63.10;;;;;;6190401;23;20017;-85
2023/08/09 07:54:55;;;;;;;7.13;1.83;;;20.10;63.10;;;;;;6190293;23;20023;-86
2023/08/09 07:57:22;;;;;;;7.85;1.80;;;20.10;63.50;;;;;;6185425;23;20028;-86
2023/08/09 07:59:49;;;;;;;4.85;1.80;;;20.10;62.40;;;;;;6211173;23;20032;-86
2023/08/09 08:02:16;;;;;;;7.22;1.58;;;20.10;62.90;;;;;;6185649;23;20104;-86
2023/08/09 08:04:44;;;;;;;5.35;1.40;;;20.10;62.20;;;;;;6209695;23;20117;-86
2023/08/09 08:07:11;;;;;;;5.87;1.80;;;20.10;61.60;;;;;;6190031;23;20027;-85
2023/08/09 08:09:41;;;;;;;5.38;1.80;;;20.20;62.60;;;;;;6184729;23;20048;-86
2023/08/09 08:12:09;;;;;;;6.72;2.30;;;20.30;63.60;;;;;;6210300;23;20028;-86
2023/08/09 08:14:49;;;;;;;6.18;2.08;;;20.50;64.20;;;;;;6186097;23;20076;-86
2023/08/09 08:17:16;;;;;;;5.55;1.80;;;20.70;62.10;;;;;;6160328;23;20107;-86
2023/08/09 08:19:43;;;;;;;7.27;2.27;;;20.80;60.70;;;;;;6185057;23;20012;-86
2023/08/09 08:22:10;;;;;;;6.22;1.85;;;20.80;60.40;;;;;;6160220;23;20021;-86
2023/08/09 08:24:39;;;;;;;6.47;1.92;;;20.80;60.50;;;;;;6160254;23;20013;-86
2023/08/09 08:27:06;;;;;;;4.68;1.42;;;20.70;60.40;;;;;;6213824;23;20017;-86
2023/08/09 08:29:33;;;;;;;5.60;1.77;;;20.70;59.30;;;;;;6189859;23;20013;-86
2023/08/09 08:32:00;;;;;;;4.80;1.57;;;20.80;59.90;;;;;;6165123;23;20443;-86
2023/08/09 08:34:31;;;;;;;6.05;1.70;;;20.90;59.80;;;;;;6160037;23;20017;-86
2023/08/09 08:37:00;;;;;;;6.57;1.98;;;21.10;61.30;;;;;;6185866;23;20017;-86
2023/08/09 08:39:33;;;;;;;6.50;1.50;;;21.20;58.40;;;;;;6189871;23;20442;-86
2023/08/09 08:42:03;;;;;;;4.72;1.17;;;21.20;58.30;;;;;;6188539;23;20088;-86
2023/08/09 08:44:32;;;;;;;4.70;1.30;;;21.10;56.70;;;;;;6164871;23;20048;-86
2023/08/09 08:46:59;;;;;;;7.50;1.52;;;21.20;55.10;;;;;;6187940;23;20130;-85
2023/08/09 08:49:29;;;;;;;4.85;1.40;;;21.20;56.10;;;;;;6165198;23;20024;-85
2023/08/09 08:51:58;;;;;;;7.15;1.60;;;21.20;55.30;;;;;;6162486;23;20048;-86
2023/08/09 08:54:25;;;;;;;4.45;1.17;;;21.10;55.20;;;;;;6180708;23;20020;-86
2023/08/09 08:56:52;;;;;;;3.70;0.83;;;21.10;56.20;;;;;;6164834;23;20016;-86
2023/08/09 08:59:21;;;;;;;3.47;0.93;;;21.10;55.30;;;;;;6189263;23;20020;-86
2023/08/09 09:01:48;;;;;;;4.88;1.10;;;21.00;55.00;;;;;;6214859;23;20047;-85
2023/08/09 09:04:15;;;;;;;5.15;0.98;;;21.00;56.80;;;;;;6189668;23;20099;-85
2023/08/09 09:06:43;;;;;;;4.10;1.40;;;21.00;55.00;;;;;;6184436;23;20458;-85
2023/08/09 09:09:15;;;;;;;4.70;1.00;;;20.90;54.60;;;;;;6184600;23;20355;-86
2023/08/09 09:11:43;;;;;;;3.55;1.00;;;20.80;54.90;;;;;;6159970;23;20021;-85
2023/08/09 09:14:15;;;;;;;7.80;1.23;;;20.80;55.70;;;;;;6184172;23;20096;-85
2023/08/09 09:16:45;;;;;;;6.43;1.20;;;20.80;55.50;;;;;;6159970;23;20020;-85
2023/08/09 09:19:12;;;;;;;4.57;1.20;;;20.80;56.80;;;;;;6172565;23;20053;-86
2023/08/09 09:21:41;;;;;;;6.87;1.23;;;20.80;57.20;;;;;;6159140;23;20479;-85
2023/08/09 09:24:10;;;;;;;5.95;1.33;;;20.80;56.60;;;;;;6189449;23;20074;-86
2023/08/09 09:26:38;;;;;;;4.75;1.20;;;20.80;55.00;;;;;;6159745;23;20056;-86
2023/08/09 09:29:09;;;;;;;5.25;1.30;;;20.70;57.80;;;;;;6213710;23;20474;-85
2023/08/09 09:31:39;;;;;;;5.43;1.30;;;20.60;56.40;;;;;;6159611;23;20025;-86
2023/08/09 09:34:07;;;;;;;5.10;1.37;;;20.60;56.60;;;;;;6163950;23;20040;-85
2023/08/09 09:36:39;;;;;;;5.05;1.20;;;20.50;54.90;;;;;;6189329;23;20027;-85
2023/08/09 09:39:10;;;;;;;4.22;1.48;;;20.50;55.60;;;;;;6164529;23;20013;-86
2023/08/09 09:41:38;;;;;;;5.75;1.65;;;20.50;56.80;;;;;;6159245;23;20017;-85
2023/08/09 09:44:05;;;;;;;3.53;1.10;;;20.50;56.40;;;;;;6163420;23;20024;-86
2023/08/09 09:46:40;;;;;;;4.87;1.10;;;20.50;56.50;;;;;;6164604;23;20016;-86
2023/08/09 09:49:07;;;;;;;7.03;1.40;;;20.50;56.30;;;;;;6164126;23;20024;-85
2023/08/09 09:51:35;;;;;;;4.97;1.10;;;20.50;57.20;;;;;;6159762;23;20029;-86
2023/08/09 09:54:04;;;;;;;4.40;1.20;;;20.50;56.50;;;;;;6187697;23;20033;-86
2023/08/09 09:56:32;;;;;;;7.05;1.40;;;20.40;54.80;;;;;;6214239;23;20095;-86
2023/08/09 09:59:00;;;;;;;5.07;1.37;;;20.30;56.10;;;;;;6189020;23;20024;-86
2023/08/09 10:01:29;;;;;;;5.80;1.30;;;20.20;55.80;;;;;;6164646;23;20027;-86
2023/08/09 10:04:06;;;;;;;5.22;1.33;;;20.10;56.40;;;;;;6186703;23;20051;-86
2023/08/09 10:06:39;;;;;;;8.73;1.48;;;20.00;57.60;;;;;;6189666;23;20155;-85
2023/08/09 10:09:08;;;;;;;3.80;1.08;;;19.90;58.80;;;;;;6164439;23;20023;-85
2023/08/09 10:11:36;;;;;;;4.93;1.10;;;19.80;60.00;;;;;;6184479;23;20021;-86
2023/08/09 10:14:07;;;;;;;6.65;1.50;;;19.60;60.40;;;;;;6163636;23;20048;-86
2023/08/09 10:16:36;;;;;;;5.20;1.30;;;19.50;61.60;;;;;;6164592;23;20055;-86
2023/08/09 10:19:08;;;;;;;6.50;1.52;;;19.50;62.10;;;;;;6163521;23;20347;-86
2023/08/09 10:21:35;;;;;;;5.22;1.73;;;19.40;62.70;;;;;;6159605;23;20019;-86
2023/08/09 10:24:13;;;;;;;6.90;1.50;;;19.40;63.80;;;;;;6183991;23;20025;-85
2023/08/09 10:26:44;;;;;;;5.68;1.40;;;19.40;64.00;;;;;;6153341;23;20021;-86
2023/08/09 10:29:20;;;;;;;6.32;1.58;;;19.40;64.10;;;;;;6152811;23;20025;-86
2023/08/09 10:32:02;;;;;;;5.53;1.35;;;19.50;64.80;;;;;;6215018;23;20075;-85
2023/08/09 10:34:37;;;;;;;5.93;1.20;;;19.50;64.40;;;;;;6191199;23;20452;-85
2023/08/09 10:37:06;;;;;;;7.43;1.10;;;19.60;66.20;;;;;;6191219;23;20051;-86
2023/08/09 10:39:34;;;;;;;4.80;1.10;;;19.60;64.60;;;;;;6166265;23;20374;-86
2023/08/09 10:42:08;;;;;;;4.80;1.33;;;19.50;65.60;;;;;;6161357;23;20105;-86
2023/08/09 10:44:49;;;;;;;5.22;1.50;;;19.60;65.90;;;;;;6177671;23;20017;-85
2023/08/09 10:47:25;;;;;;;4.55;1.40;;;19.60;65.00;;;;;;6216146;23;20054;-85
2023/08/09 10:49:53;;;;;;;4.10;1.10;;;19.60;65.10;;;;;;6166977;23;20023;-86
2023/08/09 10:52:28;;;;;;;3.17;1.00;;;19.80;65.20;;;;;;6191143;23;20075;-86
2023/08/09 10:55:21;;;;;;;5.75;1.30;;;19.60;64.80;;;;;;6165870;23;20026;-86
2023/08/09 10:57:50;;;;;;;3.85;1.17;;;19.60;66.30;;;;;;6190586;23;20020;-85
2023/08/09 11:00:19;;;;;;;7.28;2.15;;;19.60;66.70;;;;;;6161392;23;20028;-86
2023/08/09 11:02:46;;;;;;;6.57;2.23;;;19.70;66.80;;;;;;6186296;23;20044;-86
2023/08/09 11:05:14;;;;;;;4.20;1.60;;;19.70;67.30;;;;;;6190612;23;20027;-85
2023/08/09 11:07:45;;;;;;;4.72;1.40;;;19.70;67.40;;;;;;6185759;23;20019;-86
2023/08/09 11:10:12;;;;;;;4.88;1.60;;;19.60;67.80;;;;;;6210697;23;20044;-85
2023/08/09 11:12:44;;;;;;;5.53;1.60;;;19.50;68.00;;;;;;6161696;23;20013;-85
2023/08/09 11:15:12;;;;;;;6.77;1.80;;;19.60;69.10;;;;;;6190530;23;20111;-85
2023/08/09 11:17:49;;;;;;;6.45;1.50;;;19.60;70.70;;;;;;6161005;23;20013;-85
2023/08/09 11:20:17;;;;;;;6.25;2.20;;;19.50;69.80;;;;;;6165904;23;20016;-86
2023/08/09 11:22:51;;;;;;;5.15;1.42;;;19.50;70.60;;;;;;6185658;23;20087;-86
2023/08/09 11:25:19;;;;;;;5.93;1.65;;;19.50;70.30;;;;;;6190435;23;20515;-86
2023/08/09 11:27:46;;;;;;;6.93;2.23;;;19.50;70.10;;;;;;6165825;23;20452;-86
2023/08/09 11:30:14;;;;;;;4.85;1.75;;;19.60;70.70;;;;;;6190472;23;20019;-85
2023/08/09 11:32:41;;;;;;;5.53;2.25;;;19.80;71.00;;;;;;6190495;23;20017;-85
2023/08/09 11:35:09;;;;;;;6.97;3.35;;;20.00;69.80;;;;;;6160931;23;20013;-86
2023/08/09 11:37:36;;;;;;;7.43;3.83;;;20.10;69.50;;;;;;6171079;23;20020;-85
2023/08/09 11:40:04;;;;;;;5.43;2.27;;;20.10;69.10;;;;;;6190339;23;20019;-85
2023/08/09 11:42:31;;;;;;;5.82;2.80;;;20.10;68.40;;;;;;6165462;23;20025;-86
2023/08/09 11:44:58;;;;;;;3.90;1.60;;;20.30;68.70;;;;;;6163584;23;20075;-86
2023/08/09 11:47:26;;;;;;;4.05;1.25;;;20.20;66.20;;;;;;6190823;23;20016;-85
2023/08/09 11:49:53;;;;;;;4.72;1.80;;;20.00;65.60;;;;;;6187176;23;20017;-86
2023/08/09 11:52:22;;;;;;;3.63;1.20;;;19.80;66.40;;;;;;6160460;23;20435;-86
2023/08/09 11:54:50;;;;;;;3.42;1.20;;;19.70;66.00;;;;;;6185852;23;20044;-85
2023/08/09 11:57:17;;;;;;;1.98;0.75;;;19.80;66.90;;;;;;6165552;23;20021;-86
2023/08/09 11:59:44;;;;;;;2.17;0.60;;;19.80;67.40;;;;;;6160832;23;20100;-86
2023/08/09 12:02:11;;;;;;;2.63;0.60;;;19.80;66.60;;;;;;6190013;23;20024;-85
2023/08/09 12:04:39;;;;;;;1.47;0.50;;;19.90;66.10;;;;;;6189845;23;20055;-85
2023/08/09 12:07:09;;;;;;;2.38;0.60;;;20.00;66.60;;;;;;6164475;23;20051;-85
2023/08/09 12:09:36;;;;;;;1.85;0.50;;;19.90;65.50;;;;;;6184999;23;20032;-85
2023/08/09 12:12:08;;;;;;;2.33;0.80;;;20.00;65.40;;;;;;6189240;23;20032;-85
2023/08/09 12:14:41;;;;;;;2.55;0.73;;;20.00;65.00;;;;;;6184945;23;20448;-85
2023/08/09 12:17:17;;;;;;;2.43;0.70;;;20.10;66.70;;;;;;6214970;23;20017;-85
2023/08/09 12:19:48;;;;;;;2.72;0.70;;;20.10;65.90;;;;;;6186070;23;20100;-85
2023/08/09 12:22:16;;;;;;;2.47;0.70;;;20.10;63.70;;;;;;6185212;23;20021;-85
2023/08/09 12:24:43;;;;;;;1.98;0.70;;;20.00;63.40;;;;;;6209905;23;20076;-85
2023/08/09 12:27:10;;;;;;;4.25;0.75;;;20.00;63.70;;;;;;6184703;23;20027;-85
2023/08/09 12:29:37;;;;;;;2.20;0.70;;;20.00;62.90;;;;;;6160435;23;20021;-86
2023/08/09 12:32:05;;;;;;;2.78;0.77;;;20.00;62.00;;;;;;6165654;23;20147;-86
2023/08/09 12:34:33;;;;;;;3.30;1.02;;;20.10;63.30;;;;;;6189923;23;20016;-86
2023/08/09 12:37:00;;;;;;;2.53;0.85;;;20.10;62.70;;;;;;6189901;23;20020;-86
2023/08/09 12:39:27;;;;;;;2.75;0.70;;;20.00;62.10;;;;;;6189930;23;20055;-85
2023/08/09 12:41:55;;;;;;;3.50;1.03;;;20.10;63.90;;;;;;6165362;23;20017;-86
2023/08/09 12:44:24;;;;;;;3.15;0.82;;;20.10;62.20;;;;;;6214834;23;20093;-86
2023/08/09 12:46:51;;;;;;;2.65;0.60;;;20.00;61.10;;;;;;6165417;23;20020;-85
2023/08/09 12:49:18;;;;;;;2.40;0.80;;;20.00;61.80;;;;;;6185121;23;20020;-86
2023/08/09 12:51:45;;;;;;;3.13;0.90;;;20.00;62.30;;;;;;6184690;23;20027;-85
2023/08/09 12:54:12;;;;;;;4.27;1.70;;;20.00;62.40;;;;;;6164689;23;20016;-86